sensor_id;sensor_type;location;lat;lon;timestamp;pressure;altitude;pressure_sealevel;temperature;humidity
62926;BME280;55732;52.248;-0.844;2023-03-11T00:00:08;100151.06;;;-0.00;85.11
62926;BME280;55732;52.248;-0.844;2023-03-11T00:02:41;100155.02;;;-0.01;84.93
62926;BME280;55732;52.248;-0.844;2023-03-11T00:05:08;100152.70;;;-0.03;85.20
62926;BME280;55732;52.248;-0.844;2023-03-11T00:07:34;100153.23;;;-0.03;85.37
62926;BME280;55732;52.248;-0.844;2023-03-11T00:10:02;100154.44;;;-0.03;85.33
62926;BME280;55732;52.248;-0.844;2023-03-11T00:12:27;100150.45;;;-0.03;85.49
62926;BME280;55732;52.248;-0.844;2023-03-11T00:14:53;100145.95;;;-0.03;85.70
62926;BME280;55732;52.248;-0.844;2023-03-11T00:17:18;100144.55;;;-0.04;85.69
62926;BME280;55732;52.248;-0.844;2023-03-11T00:19:43;100149.20;;;-0.04;85.68
62926;BME280;55732;52.248;-0.844;2023-03-11T00:22:09;100154.36;;;-0.05;85.67
62926;BME280;55732;52.248;-0.844;2023-03-11T00:24:34;100151.10;;;-0.04;85.75
62926;BME280;55732;52.248;-0.844;2023-03-11T00:26:59;100152.84;;;-0.04;85.59
62926;BME280;55732;52.248;-0.844;2023-03-11T00:29:25;100161.06;;;-0.06;85.41
62926;BME280;55732;52.248;-0.844;2023-03-11T00:31:50;100158.51;;;-0.10;85.26
62926;BME280;55732;52.248;-0.844;2023-03-11T00:34:16;100152.84;;;-0.14;85.21
62926;BME280;55732;52.248;-0.844;2023-03-11T00:36:41;100151.95;;;-0.20;85.13
62926;BME280;55732;52.248;-0.844;2023-03-11T00:39:06;100151.48;;;-0.23;85.29
62926;BME280;55732;52.248;-0.844;2023-03-11T00:41:33;100152.09;;;-0.26;85.58
62926;BME280;55732;52.248;-0.844;2023-03-11T00:43:59;100145.71;;;-0.29;85.43
62926;BME280;55732;52.248;-0.844;2023-03-11T00:46:25;100149.20;;;-0.33;85.56
62926;BME280;55732;52.248;-0.844;2023-03-11T00:48:51;100148.94;;;-0.37;85.90
62926;BME280;55732;52.248;-0.844;2023-03-11T00:51:16;100146.23;;;-0.39;85.97
62926;BME280;55732;52.248;-0.844;2023-03-11T00:53:42;100148.02;;;-0.43;86.00
62926;BME280;55732;52.248;-0.844;2023-03-11T00:56:09;100147.38;;;-0.46;86.16
62926;BME280;55732;52.248;-0.844;2023-03-11T00:58:35;100154.73;;;-0.49;86.38
62926;BME280;55732;52.248;-0.844;2023-03-11T01:01:08;100154.23;;;-0.53;86.25
62926;BME280;55732;52.248;-0.844;2023-03-11T01:03:34;100152.66;;;-0.58;86.17
62926;BME280;55732;52.248;-0.844;2023-03-11T01:06:00;100151.70;;;-0.60;86.62
62926;BME280;55732;52.248;-0.844;2023-03-11T01:08:26;100146.14;;;-0.61;86.94
62926;BME280;55732;52.248;-0.844;2023-03-11T01:10:52;100148.84;;;-0.63;86.71
62926;BME280;55732;52.248;-0.844;2023-03-11T01:13:17;100148.54;;;-0.66;86.66
62926;BME280;55732;52.248;-0.844;2023-03-11T01:15:43;100140.53;;;-0.68;86.70
62926;BME280;55732;52.248;-0.844;2023-03-11T01:18:08;100145.48;;;-0.69;86.60
62926;BME280;55732;52.248;-0.844;2023-03-11T01:20:35;100145.39;;;-0.72;86.60
62926;BME280;55732;52.248;-0.844;2023-03-11T01:23:02;100148.35;;;-0.76;86.70
62926;BME280;55732;52.248;-0.844;2023-03-11T01:25:28;100153.27;;;-0.79;86.74
62926;BME280;55732;52.248;-0.844;2023-03-11T01:27:53;100154.40;;;-0.81;87.03
62926;BME280;55732;52.248;-0.844;2023-03-11T01:30:21;100152.30;;;-0.82;87.14
62926;BME280;55732;52.248;-0.844;2023-03-11T01:32:47;100152.95;;;-0.83;86.96
62926;BME280;55732;52.248;-0.844;2023-03-11T01:35:14;100155.63;;;-0.86;86.87
62926;BME280;55732;52.248;-0.844;2023-03-11T01:37:40;100151.88;;;-0.89;86.86
62926;BME280;55732;52.248;-0.844;2023-03-11T01:40:10;100150.30;;;-0.89;86.95
62926;BME280;55732;52.248;-0.844;2023-03-11T01:42:37;100151.50;;;-0.90;87.15
62926;BME280;55732;52.248;-0.844;2023-03-11T01:47:54;100151.98;;;-0.90;87.44
62926;BME280;55732;52.248;-0.844;2023-03-11T01:50:19;100147.45;;;-0.91;87.56
62926;BME280;55732;52.248;-0.844;2023-03-11T01:52:46;100145.59;;;-0.90;87.61
62926;BME280;55732;52.248;-0.844;2023-03-11T01:55:13;100144.17;;;-0.91;87.55
62926;BME280;55732;52.248;-0.844;2023-03-11T01:57:42;100140.88;;;-0.91;87.51
62926;BME280;55732;52.248;-0.844;2023-03-11T02:00:09;100141.02;;;-0.92;87.57
62926;BME280;55732;52.248;-0.844;2023-03-11T02:02:50;100142.52;;;-0.94;87.47
62926;BME280;55732;52.248;-0.844;2023-03-11T02:05:20;100142.23;;;-0.97;87.30
62926;BME280;55732;52.248;-0.844;2023-03-11T02:07:46;100135.04;;;-1.00;87.29
62926;BME280;55732;52.248;-0.844;2023-03-11T02:10:12;100135.46;;;-1.02;87.35
62926;BME280;55732;52.248;-0.844;2023-03-11T02:12:38;100133.42;;;-1.06;87.21
62926;BME280;55732;52.248;-0.844;2023-03-11T02:15:05;100128.94;;;-1.10;87.16
62926;BME280;55732;52.248;-0.844;2023-03-11T02:17:32;100127.91;;;-1.14;87.31
62926;BME280;55732;52.248;-0.844;2023-03-11T02:22:31;100126.33;;;-1.20;87.52
62926;BME280;55732;52.248;-0.844;2023-03-11T02:25:07;100121.77;;;-1.21;87.83
62926;BME280;55732;52.248;-0.844;2023-03-11T02:27:37;100119.84;;;-1.22;87.81
62926;BME280;55732;52.248;-0.844;2023-03-11T02:30:06;100121.23;;;-1.26;87.56
62926;BME280;55732;52.248;-0.844;2023-03-11T02:32:33;100113.35;;;-1.29;87.81
62926;BME280;55732;52.248;-0.844;2023-03-11T02:34:58;100114.02;;;-1.30;87.94
62926;BME280;55732;52.248;-0.844;2023-03-11T02:37:24;100108.91;;;-1.33;87.94
62926;BME280;55732;52.248;-0.844;2023-03-11T02:39:52;100102.91;;;-1.36;87.81
62926;BME280;55732;52.248;-0.844;2023-03-11T02:42:25;100098.69;;;-1.38;88.08
62926;BME280;55732;52.248;-0.844;2023-03-11T02:47:24;100101.28;;;-1.42;87.86
62926;BME280;55732;52.248;-0.844;2023-03-11T02:49:50;100101.90;;;-1.44;87.87
62926;BME280;55732;52.248;-0.844;2023-03-11T02:52:16;100102.52;;;-1.46;87.92
62926;BME280;55732;52.248;-0.844;2023-03-11T02:54:41;100100.67;;;-1.49;88.03
62926;BME280;55732;52.248;-0.844;2023-03-11T02:57:07;100099.88;;;-1.52;88.11
62926;BME280;55732;52.248;-0.844;2023-03-11T02:59:33;100104.26;;;-1.55;87.92
62926;BME280;55732;52.248;-0.844;2023-03-11T03:01:58;100099.63;;;-1.58;87.84
62926;BME280;55732;52.248;-0.844;2023-03-11T03:04:23;100103.81;;;-1.61;87.98
62926;BME280;55732;52.248;-0.844;2023-03-11T03:06:49;100097.53;;;-1.63;88.24
62926;BME280;55732;52.248;-0.844;2023-03-11T03:09:14;100100.73;;;-1.65;88.27
62926;BME280;55732;52.248;-0.844;2023-03-11T03:11:39;100098.91;;;-1.68;88.21
62926;BME280;55732;52.248;-0.844;2023-03-11T03:14:05;100095.40;;;-1.69;88.35
62926;BME280;55732;52.248;-0.844;2023-03-11T03:16:30;100097.08;;;-1.70;88.48
62926;BME280;55732;52.248;-0.844;2023-03-11T03:18:56;100093.56;;;-1.72;88.64
62926;BME280;55732;52.248;-0.844;2023-03-11T03:21:21;100088.17;;;-1.73;88.76
62926;BME280;55732;52.248;-0.844;2023-03-11T03:23:47;100090.00;;;-1.74;88.62
62926;BME280;55732;52.248;-0.844;2023-03-11T03:26:12;100100.77;;;-1.77;88.64
62926;BME280;55732;52.248;-0.844;2023-03-11T03:28:38;100105.20;;;-1.79;88.57
62926;BME280;55732;52.248;-0.844;2023-03-11T03:31:05;100103.81;;;-1.79;88.72
62926;BME280;55732;52.248;-0.844;2023-03-11T03:33:31;100102.09;;;-1.79;88.76
62926;BME280;55732;52.248;-0.844;2023-03-11T03:35:57;100098.10;;;-1.79;88.85
62926;BME280;55732;52.248;-0.844;2023-03-11T03:38:22;100106.77;;;-1.79;89.01
62926;BME280;55732;52.248;-0.844;2023-03-11T03:40:47;100100.70;;;-1.79;89.00
62926;BME280;55732;52.248;-0.844;2023-03-11T03:43:13;100101.89;;;-1.79;88.91
62926;BME280;55732;52.248;-0.844;2023-03-11T03:45:39;100106.38;;;-1.80;88.85
62926;BME280;55732;52.248;-0.844;2023-03-11T03:48:05;100106.23;;;-1.79;88.98
62926;BME280;55732;52.248;-0.844;2023-03-11T03:50:31;100102.73;;;-1.75;89.18
62926;BME280;55732;52.248;-0.844;2023-03-11T03:52:56;100105.86;;;-1.70;89.27
62926;BME280;55732;52.248;-0.844;2023-03-11T03:55:22;100109.90;;;-1.65;89.30
62926;BME280;55732;52.248;-0.844;2023-03-11T03:57:47;100106.33;;;-1.59;89.34
62926;BME280;55732;52.248;-0.844;2023-03-11T04:00:13;100106.54;;;-1.54;89.54
62926;BME280;55732;52.248;-0.844;2023-03-11T04:02:40;100102.44;;;-1.48;89.58
62926;BME280;55732;52.248;-0.844;2023-03-11T04:05:06;100103.33;;;-1.43;89.44
62926;BME280;55732;52.248;-0.844;2023-03-11T04:07:33;100104.22;;;-1.38;89.47
62926;BME280;55732;52.248;-0.844;2023-03-11T04:10:00;100102.14;;;-1.34;89.35
62926;BME280;55732;52.248;-0.844;2023-03-11T04:12:25;100107.48;;;-1.29;89.43
62926;BME280;55732;52.248;-0.844;2023-03-11T04:14:50;100108.37;;;-1.24;89.47
62926;BME280;55732;52.248;-0.844;2023-03-11T04:17:16;100114.56;;;-1.21;89.37
62926;BME280;55732;52.248;-0.844;2023-03-11T04:19:42;100117.58;;;-1.19;89.12
62926;BME280;55732;52.248;-0.844;2023-03-11T04:22:07;100115.20;;;-1.17;89.08
62926;BME280;55732;52.248;-0.844;2023-03-11T04:24:33;100114.21;;;-1.16;89.15
62926;BME280;55732;52.248;-0.844;2023-03-11T04:26:58;100112.59;;;-1.13;89.00
62926;BME280;55732;52.248;-0.844;2023-03-11T04:29:24;100116.79;;;-1.12;88.71
62926;BME280;55732;52.248;-0.844;2023-03-11T04:31:49;100114.83;;;-1.14;88.76
62926;BME280;55732;52.248;-0.844;2023-03-11T04:34:15;100122.69;;;-1.07;88.58
62926;BME280;55732;52.248;-0.844;2023-03-11T04:36:40;100122.55;;;-1.05;88.78
62926;BME280;55732;52.248;-0.844;2023-03-11T04:39:06;100124.83;;;-1.04;88.60
62926;BME280;55732;52.248;-0.844;2023-03-11T04:41:31;100119.91;;;-1.02;88.59
62926;BME280;55732;52.248;-0.844;2023-03-11T04:43:58;100113.74;;;-1.01;88.61
62926;BME280;55732;52.248;-0.844;2023-03-11T04:46:24;100112.08;;;-0.99;88.57
62926;BME280;55732;52.248;-0.844;2023-03-11T04:48:50;100110.23;;;-0.98;88.76
62926;BME280;55732;52.248;-0.844;2023-03-11T04:51:15;100112.02;;;-0.96;88.69
62926;BME280;55732;52.248;-0.844;2023-03-11T04:53:40;100118.90;;;-0.97;88.63
62926;BME280;55732;52.248;-0.844;2023-03-11T04:56:06;100119.14;;;-0.95;88.50
62926;BME280;55732;52.248;-0.844;2023-03-11T04:58:32;100129.88;;;-0.94;88.38
62926;BME280;55732;52.248;-0.844;2023-03-11T05:00:57;100144.44;;;-0.93;88.39
62926;BME280;55732;52.248;-0.844;2023-03-11T05:03:23;100151.27;;;-0.91;88.57
62926;BME280;55732;52.248;-0.844;2023-03-11T05:05:48;100149.27;;;-0.89;88.79
62926;BME280;55732;52.248;-0.844;2023-03-11T05:08:13;100148.31;;;-0.87;88.59
62926;BME280;55732;52.248;-0.844;2023-03-11T05:10:40;100152.32;;;-0.86;88.57
62926;BME280;55732;52.248;-0.844;2023-03-11T05:13:07;100153.23;;;-0.85;88.61
62926;BME280;55732;52.248;-0.844;2023-03-11T05:15:32;100154.55;;;-0.82;88.78
62926;BME280;55732;52.248;-0.844;2023-03-11T05:17:57;100149.66;;;-0.78;88.76
62926;BME280;55732;52.248;-0.844;2023-03-11T05:20:23;100157.89;;;-0.76;88.78
62926;BME280;55732;52.248;-0.844;2023-03-11T05:22:49;100164.48;;;-0.75;88.61
62926;BME280;55732;52.248;-0.844;2023-03-11T05:25:14;100171.90;;;-0.76;88.46
62926;BME280;55732;52.248;-0.844;2023-03-11T05:27:39;100157.91;;;-0.75;88.39
62926;BME280;55732;52.248;-0.844;2023-03-11T05:30:06;100152.22;;;-0.75;88.35
62926;BME280;55732;52.248;-0.844;2023-03-11T05:32:32;100153.79;;;-0.75;88.34
62926;BME280;55732;52.248;-0.844;2023-03-11T05:34:57;100161.45;;;-0.73;88.53
62926;BME280;55732;52.248;-0.844;2023-03-11T05:37:23;100170.99;;;-0.71;88.39
62926;BME280;55732;52.248;-0.844;2023-03-11T05:39:48;100171.37;;;-0.70;88.46
62926;BME280;55732;52.248;-0.844;2023-03-11T05:42:14;100162.06;;;-0.70;88.27
62926;BME280;55732;52.248;-0.844;2023-03-11T05:44:39;100155.69;;;-0.69;88.24
62926;BME280;55732;52.248;-0.844;2023-03-11T05:47:05;100155.52;;;-0.69;88.21
62926;BME280;55732;52.248;-0.844;2023-03-11T05:49:31;100159.29;;;-0.70;88.31
62926;BME280;55732;52.248;-0.844;2023-03-11T05:51:56;100162.91;;;-0.70;88.38
62926;BME280;55732;52.248;-0.844;2023-03-11T05:54:22;100159.73;;;-0.73;88.42
62926;BME280;55732;52.248;-0.844;2023-03-11T05:56:47;100151.08;;;-0.73;88.49
62926;BME280;55732;52.248;-0.844;2023-03-11T05:59:14;100160.27;;;-0.72;88.56
62926;BME280;55732;52.248;-0.844;2023-03-11T06:01:40;100155.63;;;-0.71;88.51
62926;BME280;55732;52.248;-0.844;2023-03-11T06:04:07;100151.60;;;-0.73;88.16
62926;BME280;55732;52.248;-0.844;2023-03-11T06:06:32;100157.73;;;-0.75;88.35
62926;BME280;55732;52.248;-0.844;2023-03-11T06:08:58;100160.83;;;-0.76;88.41
62926;BME280;55732;52.248;-0.844;2023-03-11T06:11:24;100165.67;;;-0.76;88.50
62926;BME280;55732;52.248;-0.844;2023-03-11T06:13:54;100167.42;;;-0.75;88.60
62926;BME280;55732;52.248;-0.844;2023-03-11T06:16:21;100175.05;;;-0.75;88.50
62926;BME280;55732;52.248;-0.844;2023-03-11T06:18:47;100183.34;;;-0.75;88.50
62926;BME280;55732;52.248;-0.844;2023-03-11T06:21:18;100191.11;;;-0.75;88.58
62926;BME280;55732;52.248;-0.844;2023-03-11T06:23:44;100193.61;;;-0.72;88.65
62926;BME280;55732;52.248;-0.844;2023-03-11T06:26:11;100197.83;;;-0.70;88.61
62926;BME280;55732;52.248;-0.844;2023-03-11T06:28:38;100197.21;;;-0.68;88.89
62926;BME280;55732;52.248;-0.844;2023-03-11T06:31:11;100198.53;;;-0.65;88.95
62926;BME280;55732;52.248;-0.844;2023-03-11T06:33:38;100200.45;;;-0.61;89.16
62926;BME280;55732;52.248;-0.844;2023-03-11T06:36:04;100206.90;;;-0.59;88.80
62926;BME280;55732;52.248;-0.844;2023-03-11T06:38:31;100207.85;;;-0.56;88.71
62926;BME280;55732;52.248;-0.844;2023-03-11T06:41:00;100206.56;;;-0.54;88.80
62926;BME280;55732;52.248;-0.844;2023-03-11T06:43:28;100208.41;;;-0.51;88.73
62926;BME280;55732;52.248;-0.844;2023-03-11T06:45:54;100215.45;;;-0.47;88.49
62926;BME280;55732;52.248;-0.844;2023-03-11T06:48:19;100227.07;;;-0.42;88.30
62926;BME280;55732;52.248;-0.844;2023-03-11T06:50:59;100224.59;;;-0.39;88.29
62926;BME280;55732;52.248;-0.844;2023-03-11T06:53:25;100224.01;;;-0.36;88.07
62926;BME280;55732;52.248;-0.844;2023-03-11T06:56:17;100224.70;;;-0.36;87.89
62926;BME280;55732;52.248;-0.844;2023-03-11T06:58:43;100223.65;;;-0.37;87.98
62926;BME280;55732;52.248;-0.844;2023-03-11T07:01:21;100218.66;;;-0.36;88.02
62926;BME280;55732;52.248;-0.844;2023-03-11T07:03:48;100203.80;;;-0.35;87.93
62926;BME280;55732;52.248;-0.844;2023-03-11T07:06:16;100191.33;;;-0.36;87.58
62926;BME280;55732;52.248;-0.844;2023-03-11T07:08:42;100195.52;;;-0.39;87.75
62926;BME280;55732;52.248;-0.844;2023-03-11T07:11:09;100199.66;;;-0.40;88.06
62926;BME280;55732;52.248;-0.844;2023-03-11T07:13:36;100193.04;;;-0.37;88.32
62926;BME280;55732;52.248;-0.844;2023-03-11T07:16:10;100193.88;;;-0.32;88.28
62926;BME280;55732;52.248;-0.844;2023-03-11T07:18:37;100196.52;;;-0.26;88.22
62926;BME280;55732;52.248;-0.844;2023-03-11T07:21:05;100198.89;;;-0.18;88.11
62926;BME280;55732;52.248;-0.844;2023-03-11T07:23:31;100206.20;;;-0.07;88.02
62926;BME280;55732;52.248;-0.844;2023-03-11T07:25:56;100204.41;;;0.02;88.00
62926;BME280;55732;52.248;-0.844;2023-03-11T07:28:23;100215.98;;;0.10;88.16
62926;BME280;55732;52.248;-0.844;2023-03-11T07:30:49;100223.75;;;0.20;88.15
62926;BME280;55732;52.248;-0.844;2023-03-11T07:33:15;100225.33;;;0.31;87.88
62926;BME280;55732;52.248;-0.844;2023-03-11T07:35:42;100225.56;;;0.43;87.76
62926;BME280;55732;52.248;-0.844;2023-03-11T07:38:07;100227.07;;;0.57;87.85
62926;BME280;55732;52.248;-0.844;2023-03-11T07:40:33;100224.52;;;0.69;87.25
62926;BME280;55732;52.248;-0.844;2023-03-11T07:42:59;100224.89;;;0.81;86.62
62926;BME280;55732;52.248;-0.844;2023-03-11T07:45:24;100230.34;;;0.94;86.60
62926;BME280;55732;52.248;-0.844;2023-03-11T07:47:50;100218.13;;;1.08;86.51
62926;BME280;55732;52.248;-0.844;2023-03-11T07:50:16;100210.79;;;1.17;86.46
62926;BME280;55732;52.248;-0.844;2023-03-11T07:52:42;100207.02;;;1.19;85.84
62926;BME280;55732;52.248;-0.844;2023-03-11T07:55:08;100209.08;;;1.18;85.84
62926;BME280;55732;52.248;-0.844;2023-03-11T07:57:34;100205.40;;;1.16;85.62
62926;BME280;55732;52.248;-0.844;2023-03-11T07:59:59;100210.89;;;1.15;85.46
62926;BME280;55732;52.248;-0.844;2023-03-11T08:02:25;100217.30;;;1.21;85.23
62926;BME280;55732;52.248;-0.844;2023-03-11T08:04:50;100219.39;;;1.32;85.00
62926;BME280;55732;52.248;-0.844;2023-03-11T08:07:15;100218.45;;;1.47;85.05
62926;BME280;55732;52.248;-0.844;2023-03-11T08:09:41;100210.92;;;1.63;84.56
62926;BME280;55732;52.248;-0.844;2023-03-11T08:12:07;100203.95;;;1.74;84.02
62926;BME280;55732;52.248;-0.844;2023-03-11T08:14:32;100199.34;;;1.89;83.51
62926;BME280;55732;52.248;-0.844;2023-03-11T08:16:58;100195.34;;;2.09;83.01
62926;BME280;55732;52.248;-0.844;2023-03-11T08:19:23;100195.08;;;2.32;82.58
62926;BME280;55732;52.248;-0.844;2023-03-11T08:21:48;100199.81;;;2.61;82.33
62926;BME280;55732;52.248;-0.844;2023-03-11T08:24:14;100201.12;;;2.95;81.46
62926;BME280;55732;52.248;-0.844;2023-03-11T08:26:40;100207.22;;;3.17;80.62
62926;BME280;55732;52.248;-0.844;2023-03-11T08:29:06;100209.14;;;3.42;79.76
62926;BME280;55732;52.248;-0.844;2023-03-11T08:31:33;100222.88;;;3.66;79.15
62926;BME280;55732;52.248;-0.844;2023-03-11T08:34:08;100236.70;;;3.87;77.95
62926;BME280;55732;52.248;-0.844;2023-03-11T08:36:33;100241.30;;;3.98;77.76
62926;BME280;55732;52.248;-0.844;2023-03-11T08:38:59;100234.60;;;4.22;77.41
62926;BME280;55732;52.248;-0.844;2023-03-11T08:41:25;100228.69;;;4.73;76.79
62926;BME280;55732;52.248;-0.844;2023-03-11T08:43:52;100217.36;;;5.69;73.79
62926;BME280;55732;52.248;-0.844;2023-03-11T08:48:52;100189.89;;;7.11;68.07
62926;BME280;55732;52.248;-0.844;2023-03-11T08:51:18;100187.00;;;7.24;67.24
62926;BME280;55732;52.248;-0.844;2023-03-11T08:53:44;100195.97;;;7.69;66.36
62926;BME280;55732;52.248;-0.844;2023-03-11T08:56:10;100195.31;;;8.61;65.78
62926;BME280;55732;52.248;-0.844;2023-03-11T08:58:36;100196.02;;;10.06;62.87
62926;BME280;55732;52.248;-0.844;2023-03-11T09:01:01;100201.00;;;11.36;61.30
62926;BME280;55732;52.248;-0.844;2023-03-11T09:03:33;100203.00;;;12.56;60.03
62926;BME280;55732;52.248;-0.844;2023-03-11T09:06:04;100198.75;;;13.11;57.67
62926;BME280;55732;52.248;-0.844;2023-03-11T09:08:30;100198.38;;;13.11;57.12
62926;BME280;55732;52.248;-0.844;2023-03-11T09:10:55;100198.10;;;13.08;55.47
62926;BME280;55732;52.248;-0.844;2023-03-11T09:13:21;100203.23;;;12.86;56.10
62926;BME280;55732;52.248;-0.844;2023-03-11T09:15:48;100205.55;;;12.28;55.64
62926;BME280;55732;52.248;-0.844;2023-03-11T09:18:15;100212.65;;;11.34;54.59
62926;BME280;55732;52.248;-0.844;2023-03-11T09:20:41;100213.61;;;10.43;56.43
62926;BME280;55732;52.248;-0.844;2023-03-11T09:23:07;100215.98;;;9.90;57.63
62926;BME280;55732;52.248;-0.844;2023-03-11T09:25:33;100216.98;;;9.59;58.51
62926;BME280;55732;52.248;-0.844;2023-03-11T09:27:59;100215.25;;;9.53;59.14
62926;BME280;55732;52.248;-0.844;2023-03-11T09:30:24;100212.04;;;9.69;58.33
62926;BME280;55732;52.248;-0.844;2023-03-11T09:32:50;100203.88;;;9.87;57.33
62926;BME280;55732;52.248;-0.844;2023-03-11T09:35:15;100210.39;;;10.24;55.00
62926;BME280;55732;52.248;-0.844;2023-03-11T09:37:40;100208.92;;;10.60;54.19
62926;BME280;55732;52.248;-0.844;2023-03-11T09:40:07;100207.20;;;10.98;53.20
62926;BME280;55732;52.248;-0.844;2023-03-11T09:42:40;100202.44;;;11.51;50.84
62926;BME280;55732;52.248;-0.844;2023-03-11T09:45:18;100200.65;;;12.36;49.83
62926;BME280;55732;52.248;-0.844;2023-03-11T09:51:00;100189.58;;;14.09;46.27
62926;BME280;55732;52.248;-0.844;2023-03-11T09:53:43;100180.84;;;14.94;44.36
62926;BME280;55732;52.248;-0.844;2023-03-11T09:56:14;100175.67;;;15.92;44.18
62926;BME280;55732;52.248;-0.844;2023-03-11T09:58:46;100179.45;;;16.54;42.29
62926;BME280;55732;52.248;-0.844;2023-03-11T10:03:49;100171.73;;;17.40;41.42
62926;BME280;55732;52.248;-0.844;2023-03-11T10:22:46;100168.45;;;13.70;44.20
62926;BME280;55732;52.248;-0.844;2023-03-11T10:25:17;100167.23;;;13.52;44.79
62926;BME280;55732;52.248;-0.844;2023-03-11T10:30:37;100158.58;;;13.59;44.30
62926;BME280;55732;52.248;-0.844;2023-03-11T10:35:44;100159.77;;;13.53;43.40
62926;BME280;55732;52.248;-0.844;2023-03-11T10:38:20;100162.13;;;13.85;42.56
62926;BME280;55732;52.248;-0.844;2023-03-11T10:40:47;100160.84;;;13.79;42.08
62926;BME280;55732;52.248;-0.844;2023-03-11T10:43:18;100156.73;;;13.37;41.92
62926;BME280;55732;52.248;-0.844;2023-03-11T10:45:46;100152.69;;;13.18;42.38
62926;BME280;55732;52.248;-0.844;2023-03-11T10:48:17;100156.00;;;12.99;42.51
62926;BME280;55732;52.248;-0.844;2023-03-11T10:53:22;100158.69;;;12.66;42.65
62926;BME280;55732;52.248;-0.844;2023-03-11T10:55:52;100152.55;;;12.63;42.98
62926;BME280;55732;52.248;-0.844;2023-03-11T10:58:24;100149.11;;;12.58;43.19
62926;BME280;55732;52.248;-0.844;2023-03-11T11:03:35;100145.59;;;12.00;42.89
62926;BME280;55732;52.248;-0.844;2023-03-11T11:06:04;100139.86;;;11.50;42.95
62926;BME280;55732;52.248;-0.844;2023-03-11T11:08:30;100138.43;;;11.05;43.69
62926;BME280;55732;52.248;-0.844;2023-03-11T11:11:01;100141.78;;;10.68;44.32
62926;BME280;55732;52.248;-0.844;2023-03-11T11:13:30;100141.41;;;10.23;44.10
62926;BME280;55732;52.248;-0.844;2023-03-11T11:16:05;100155.36;;;9.83;44.46
62926;BME280;55732;52.248;-0.844;2023-03-11T11:18:46;100157.77;;;9.54;45.20
62926;BME280;55732;52.248;-0.844;2023-03-11T11:21:36;100165.00;;;9.47;45.65
62926;BME280;55732;52.248;-0.844;2023-03-11T11:27:14;100160.50;;;9.30;45.63
62926;BME280;55732;52.248;-0.844;2023-03-11T11:29:40;100148.21;;;9.26;45.74
62926;BME280;55732;52.248;-0.844;2023-03-11T11:32:23;100146.44;;;9.32;46.23
62926;BME280;55732;52.248;-0.844;2023-03-11T11:35:01;100150.05;;;9.56;46.28
62926;BME280;55732;52.248;-0.844;2023-03-11T11:37:28;100146.77;;;9.79;46.41
62926;BME280;55732;52.248;-0.844;2023-03-11T11:43:11;100144.06;;;10.22;45.07
62926;BME280;55732;52.248;-0.844;2023-03-11T11:45:41;100136.20;;;10.42;45.28
62926;BME280;55732;52.248;-0.844;2023-03-11T11:51:23;100137.80;;;10.79;45.51
62926;BME280;55732;52.248;-0.844;2023-03-11T11:54:00;100135.14;;;10.82;44.96
62926;BME280;55732;52.248;-0.844;2023-03-11T11:56:27;100129.68;;;10.83;45.78
62926;BME280;55732;52.248;-0.844;2023-03-11T11:58:52;100129.84;;;10.84;45.66
62926;BME280;55732;52.248;-0.844;2023-03-11T12:04:19;100133.92;;;10.62;45.09
62926;BME280;55732;52.248;-0.844;2023-03-11T12:10:03;100134.39;;;10.48;46.05
62926;BME280;55732;52.248;-0.844;2023-03-11T12:17:46;100124.23;;;10.79;44.39
62926;BME280;55732;52.248;-0.844;2023-03-11T12:20:24;100123.89;;;10.80;44.17
62926;BME280;55732;52.248;-0.844;2023-03-11T12:31:02;100115.55;;;10.68;45.46
62926;BME280;55732;52.248;-0.844;2023-03-11T12:33:33;100110.80;;;10.67;45.66
62926;BME280;55732;52.248;-0.844;2023-03-11T12:36:01;100107.10;;;10.66;45.79
62926;BME280;55732;52.248;-0.844;2023-03-11T12:38:31;100104.88;;;10.62;45.01
62926;BME280;55732;52.248;-0.844;2023-03-11T12:46:14;100093.30;;;10.55;45.85
62926;BME280;55732;52.248;-0.844;2023-03-11T12:48:49;100094.23;;;10.50;44.26
62926;BME280;55732;52.248;-0.844;2023-03-11T12:54:37;100104.07;;;10.30;45.68
62926;BME280;55732;52.248;-0.844;2023-03-11T13:08:20;100091.55;;;9.80;45.55
62926;BME280;55732;52.248;-0.844;2023-03-11T13:10:48;100087.20;;;9.74;46.42
62926;BME280;55732;52.248;-0.844;2023-03-11T13:15:47;100074.77;;;9.63;46.40
62926;BME280;55732;52.248;-0.844;2023-03-11T13:18:14;100078.17;;;9.55;47.08
62926;BME280;55732;52.248;-0.844;2023-03-11T13:33:51;100060.02;;;9.60;48.14
62926;BME280;55732;52.248;-0.844;2023-03-11T13:41:30;100042.68;;;9.78;49.04
62926;BME280;55732;52.248;-0.844;2023-03-11T13:46:52;100037.94;;;10.02;49.15
62926;BME280;55732;52.248;-0.844;2023-03-11T13:51:52;100033.80;;;10.15;47.51
62926;BME280;55732;52.248;-0.844;2023-03-11T13:54:31;100020.64;;;10.10;47.85
62926;BME280;55732;52.248;-0.844;2023-03-11T13:57:00;100014.67;;;10.08;47.81
62926;BME280;55732;52.248;-0.844;2023-03-11T13:59:28;100004.81;;;10.10;48.25
62926;BME280;55732;52.248;-0.844;2023-03-11T14:02:17;99999.55;;;10.08;48.00
62926;BME280;55732;52.248;-0.844;2023-03-11T14:04:49;99999.72;;;9.87;47.74
62926;BME280;55732;52.248;-0.844;2023-03-11T14:07:28;99994.64;;;9.59;47.47
62926;BME280;55732;52.248;-0.844;2023-03-11T14:10:23;99995.89;;;9.29;48.43
62926;BME280;55732;52.248;-0.844;2023-03-11T14:12:49;99995.45;;;9.12;49.01
62926;BME280;55732;52.248;-0.844;2023-03-11T14:15:25;100000.38;;;9.09;49.28
62926;BME280;55732;52.248;-0.844;2023-03-11T14:17:52;100001.95;;;9.11;49.00
62926;BME280;55732;52.248;-0.844;2023-03-11T14:20:19;99998.42;;;9.14;49.09
62926;BME280;55732;52.248;-0.844;2023-03-11T14:22:51;99992.98;;;9.18;49.17
62926;BME280;55732;52.248;-0.844;2023-03-11T14:25:26;99992.58;;;9.24;49.63
62926;BME280;55732;52.248;-0.844;2023-03-11T14:27:58;99993.73;;;9.34;49.76
62926;BME280;55732;52.248;-0.844;2023-03-11T14:30:30;99989.52;;;9.38;49.05
62926;BME280;55732;52.248;-0.844;2023-03-11T14:33:05;99988.64;;;9.35;49.14
62926;BME280;55732;52.248;-0.844;2023-03-11T14:35:53;99980.63;;;9.25;48.80
62926;BME280;55732;52.248;-0.844;2023-03-11T14:38:24;99978.42;;;9.13;48.72
62926;BME280;55732;52.248;-0.844;2023-03-11T14:40:59;99975.48;;;9.03;49.01
62926;BME280;55732;52.248;-0.844;2023-03-11T14:43:28;99976.56;;;8.96;48.88